Latest Weather Observations for Dubbo

IDN60801

Issued at 10:04 pm EDT Tuesday 3 March 2015 (issued every 30 minutes, with the page automatically refreshed every 10 minutes)

About weather observations | Map of weather stations | Latest weather observations for NSW | Other Formats
Station Details ID: 065070 Name: DUBBO AIRPORT AWS Lat: -32.22 Lon: 148.58 Height: 284.0 m
Data from the previous 72 hours. | See also: Recent months at Dubbo
Date/Time
EDT
Temp
°C
App
Temp
°C
Dew
Point
Rel
Hum
%
Delta-T
°C
Wind Press
QNH
hPa
Press
MSL
hPa
Rain
since 9 am
mm
Dir
 
Spd
km/h
Gust
km/h
Spd
kts
Gust
kts
03/10:00pm 29.6 28.2 14.6 40 9.2 S 15 17 8 9 1011.7 1010.6 -
03/09:30pm 30.4 28.3 15.3 40 9.4 SSW 20 33 11 18 1011.5 1010.4 0.0
03/09:00pm 29.7 30.5 17.2 47 8.0 S 9 11 5 6 1011.0 1009.8 0.0
03/08:30pm 29.9 31.0 18.0 48 7.7 S 9 13 5 7 1010.7 1009.5 0.0
03/08:00pm 29.0 30.0 16.9 48 7.7 S 7 9 4 5 1010.4 1009.2 0.0
03/07:30pm 31.5 32.1 15.9 39 9.8 S 7 9 4 5 1010.2 1009.0 0.0
03/07:00pm 33.5 34.1 16.8 36 10.7 S 9 11 5 6 1010.1 1008.9 0.0
03/06:30pm 34.1 34.7 16.9 36 11.1 SSW 9 13 5 7 1010.1 1008.9 0.0
03/06:00pm 35.1 35.1 17.3 34 11.6 WSW 13 19 7 10 1010.1 1008.9 0.0
03/05:30pm 34.5 34.3 16.8 34 11.4 W 13 19 7 10 1010.2 1009.0 0.0
03/05:00pm 34.7 33.3 16.5 33 11.7 WNW 19 26 10 14 1010.3 1009.1 0.0
03/04:30pm 35.8 34.2 16.5 31 12.4 NW 20 32 11 17 1010.4 1009.2 0.0
03/04:00pm 37.3 35.5 17.8 31 12.9 NW 24 37 13 20 1010.6 1009.4 0.0
03/03:30pm 35.7 34.5 17.4 33 11.9 NNW 20 33 11 18 1011.1 1009.9 0.0
03/03:00pm 35.5 34.6 18.1 35 11.5 NW 20 35 11 19 1011.6 1010.5 0.0
03/02:30pm 34.9 33.4 17.6 35 11.3 NNW 22 35 12 19 1012.3 1011.1 0.0
03/02:00pm 34.0 31.7 17.7 38 10.6 NW 26 35 14 19 1012.7 1011.5 0.0
03/01:30pm 33.8 32.9 18.3 39 10.2 N 20 33 11 18 1013.2 1012.0 0.0
03/01:00pm 32.2 30.3 17.7 42 9.4 NNW 24 39 13 21 1013.8 1012.6 0.0
03/12:30pm 32.0 29.8 17.8 42 9.2 NNW 26 32 14 17 1014.3 1013.1 0.0
03/12:00pm 31.7 30.1 18.3 45 8.7 NNW 24 33 13 18 1015.0 1013.9 0.0
03/11:31am 30.5 27.9 17.9 47 8.1 N 28 46 15 25 1015.2 1014.1 0.0
03/11:30am 30.3 27.7 17.7 46 8.1 N 28 35 15 19 1015.2 1014.1 0.0
03/11:00am 29.6 26.6 17.8 49 7.6 N 30 44 16 24 1015.6 1014.5 0.0
03/10:53am 28.7 26.9 16.9 48 7.5 N 22 39 12 21 1015.7 1014.6 0.0
03/10:41am 27.7 26.6 16.3 49 7.1 NNE 17 26 9 14 1015.8 1014.7 0.0
03/10:30am 26.9 25.9 16.5 53 6.5 NNE 17 26 9 14 1016.0 1014.8 0.0
03/10:00am 25.3 23.8 16.2 57 5.6 NE 19 30 10 16 1016.2 1015.0 0.0
03/09:30am 24.0 23.1 15.8 60 5.0 ENE 15 19 8 10 1016.2 1015.0 0.0
03/09:00am 21.4 19.0 14.3 64 4.2 E 20 26 11 14 1016.3 1015.1 0.0
03/08:30am 20.3 17.8 14.2 68 3.6 ENE 20 28 11 15 1016.4 1015.2 0.0
03/08:00am 18.7 15.7 13.8 73 2.8 E 22 28 12 15 1016.2 1015.0 0.0
03/07:30am 17.9 15.3 13.8 77 2.4 E 20 26 11 14 1015.7 1014.6 0.0
03/07:00am 17.3 14.6 13.4 78 2.2 E 20 28 11 15 1015.3 1014.2 0.0
03/06:30am 17.5 14.5 13.6 78 2.2 E 22 30 12 16 1015.0 1013.9 0.0
03/06:00am 17.7 14.3 13.6 77 2.4 E 24 32 13 17 1014.5 1013.3 0.0
03/05:30am 17.7 14.7 13.6 77 2.4 E 22 32 12 17 1014.3 1013.1 0.0
03/05:00am 17.6 15.0 13.7 78 2.2 E 20 26 11 14 1014.1 1012.9 0.0
03/04:30am 17.9 15.2 13.6 76 2.5 E 20 32 11 17 1014.3 1013.1 0.0
03/04:00am 18.2 14.4 13.7 75 2.6 E 26 39 14 21 1013.6 1012.4 0.0
03/03:30am 18.2 14.4 13.7 75 2.6 E 26 39 14 21 1013.5 1012.3 0.0
03/03:00am 18.5 14.8 13.8 74 2.7 ESE 26 37 14 20 1013.8 1012.6 0.0
03/02:30am 18.8 14.0 13.9 73 2.8 E 32 43 17 23 1013.9 1012.7 0.0
03/02:00am 18.8 15.4 13.6 72 3.0 E 24 35 13 19 1014.2 1013.0 0.0
03/01:30am 19.0 14.9 13.8 72 3.0 ESE 28 43 15 23 1014.3 1013.1 0.0
03/01:00am 19.3 15.6 13.9 71 3.1 E 26 43 14 23 1014.7 1013.6 0.0
03/12:30am 19.8 16.3 14.4 71 3.2 E 26 35 14 19 1015.0 1013.9 0.0
03/12:00am 20.2 16.8 14.8 71 3.2 E 26 39 14 21 1015.0 1013.9 0.0
 
Date/Time
EDT
Temp
°C
App
Temp
°C
Dew
Point
Rel
Hum
%
Delta-T
°C
Wind Press
QNH
hPa
Press
MSL
hPa
Rain
since 9 am
mm
Dir
 
Spd
km/h
Gust
km/h
Spd
kts
Gust
kts
02/11:33pm 20.4 16.7 15.0 71 3.2 E 28 43 15 23 1015.0 1013.9 0.0
02/11:30pm 20.5 16.8 15.1 71 3.2 E 28 43 15 23 1015.0 1013.9 0.0
02/11:20pm 20.7 16.2 15.3 71 3.2 E 33 46 18 25 1014.9 1013.8 0.0
02/11:00pm 20.9 16.5 15.2 70 3.4 E 32 41 17 22 1015.0 1013.9 0.0
02/10:30pm 21.0 16.4 15.1 69 3.5 E 33 48 18 26 1014.8 1013.7 0.0
02/10:00pm 21.6 15.8 15.0 66 4.0 ENE 39 56 21 30 1014.5 1013.3 0.0
02/09:30pm 22.0 16.2 14.9 64 4.3 E 39 54 21 29 1014.3 1013.1 0.0
02/09:02pm 22.9 18.5 15.2 62 4.7 E 32 52 17 28 1013.8 1012.6 0.0
02/09:00pm 22.9 18.5 15.2 62 4.7 E 32 44 17 24 1013.8 1012.6 0.0
02/08:30pm 23.9 19.0 15.4 59 5.2 E 35 52 19 28 1013.4 1012.2 0.0
02/08:00pm 24.9 20.4 15.5 56 5.8 E 33 44 18 24 1013.1 1011.9 0.0
02/07:30pm 26.2 21.4 15.6 52 6.5 E 35 46 19 25 1012.9 1011.7 0.0
02/07:00pm 28.4 24.4 15.3 45 8.1 E 30 41 16 22 1012.3 1011.1 0.0
02/06:30pm 29.1 26.4 15.6 44 8.4 E 24 33 13 18 1011.9 1010.8 0.0
02/06:00pm 30.6 27.9 15.5 40 9.4 E 24 32 13 17 1011.6 1010.5 0.0
02/05:30pm 31.2 28.9 15.6 39 9.8 E 22 30 12 16 1011.6 1010.5 0.0
02/05:00pm 31.0 29.0 15.4 38 9.7 E 20 30 11 16 1011.6 1010.5 0.0
02/04:30pm 32.3 30.2 16.2 38 10.2 ESE 22 32 12 17 1011.8 1010.7 0.0
02/04:00pm 31.5 29.5 15.5 38 10.0 E 20 32 11 17 1012.1 1011.0 0.0
02/03:30pm 31.3 28.9 15.3 38 10.0 E 22 32 12 17 1012.4 1011.2 0.0
02/03:00pm 31.0 28.6 15.4 38 9.7 ENE 22 33 12 18 1012.9 1011.7 0.0
02/02:30pm 29.7 27.4 14.7 40 9.2 ENE 20 30 11 16 1013.4 1012.2 0.0
02/02:00pm 30.2 27.3 15.1 40 9.4 ENE 24 35 13 19 1013.9 1012.7 0.0
02/01:30pm 29.2 25.4 14.6 41 8.9 ENE 28 37 15 20 1014.3 1013.1 0.0
02/01:00pm 28.9 25.6 15.1 43 8.5 E 26 39 14 21 1014.8 1013.7 0.0
02/12:30pm 29.0 25.1 15.5 44 8.4 E 30 41 16 22 1015.1 1014.0 0.0
02/12:00pm 27.9 24.0 15.5 46 7.7 E 30 44 16 24 1015.3 1014.2 0.0
02/11:30am 27.1 22.6 14.8 47 7.5 E 32 44 17 24 1015.8 1014.7 0.0
02/11:00am 25.9 21.2 14.4 49 6.9 E 32 43 17 23 1016.3 1015.1 0.0
02/10:30am 24.6 19.8 14.1 52 6.3 E 32 46 17 25 1016.2 1015.0 0.0
02/10:00am 23.5 17.3 13.7 54 5.8 E 39 50 21 27 1016.0 1014.8 0.0
02/09:30am 22.7 17.4 13.2 55 5.5 E 33 43 18 23 1016.0 1014.8 0.0
02/09:00am 21.7 16.0 13.1 58 5.0 E 35 48 19 26 1015.7 1014.6 0.0
02/08:30am 20.5 15.3 12.7 61 4.5 E 32 43 17 23 1015.7 1014.6 0.0
02/08:00am 19.5 14.3 12.7 65 3.9 E 32 46 17 25 1015.6 1014.5 0.0
02/07:30am 18.7 14.4 13.1 70 3.2 ESE 28 35 15 19 1015.3 1014.2 0.0
02/07:00am 18.0 14.4 13.1 73 2.8 ESE 24 33 13 18 1014.8 1013.7 0.0
02/06:30am 18.1 14.5 13.0 72 2.9 ESE 24 32 13 17 1014.5 1013.3 0.0
02/06:00am 18.3 14.7 13.2 72 2.9 ESE 24 32 13 17 1014.4 1013.2 0.0
02/05:30am 18.1 14.7 13.6 75 2.6 ESE 24 33 13 18 1014.2 1013.0 0.0
02/05:00am 18.0 15.4 13.3 74 2.7 ESE 19 28 10 15 1013.9 1012.7 0.0
02/04:30am 18.3 15.6 13.6 74 2.7 ESE 20 30 11 16 1013.6 1012.4 0.0
02/04:00am 18.8 16.1 14.5 76 2.5 SE 22 32 12 17 1013.5 1012.3 0.0
02/03:30am 19.3 17.1 15.0 76 2.5 ESE 20 30 11 16 1013.2 1012.0 0.0
02/03:00am 20.1 16.5 15.3 74 2.9 ESE 28 46 15 25 1013.0 1011.8 0.0
02/02:30am 21.8 16.2 15.6 68 3.8 E 39 57 21 31 1013.0 1011.8 0.0
02/02:11am 22.3 19.4 17.0 72 3.3 E 28 50 15 27 1012.8 1011.6 0.0
02/02:00am 22.2 19.4 17.3 74 3.1 E 28 43 15 23 1012.8 1011.6 0.0
02/01:30am 21.9 19.7 17.9 78 2.5 E 26 35 14 19 1012.8 1011.6 0.0
02/01:00am 22.2 19.8 18.2 78 2.5 ENE 28 39 15 21 1012.6 1011.4 0.0
02/12:58am 22.2 19.8 18.2 78 2.5 ENE 28 39 15 21 1012.6 1011.4 0.0
02/12:30am 19.1 15.6 7.2 46 6.1 SE 15 17 8 9 1012.3 1011.1 0.0
02/12:00am 21.8 18.2 6.9 38 7.7 S 15 17 8 9 1011.5 1010.4 0.0
 
Date/Time
EDT
Temp
°C
App
Temp
°C
Dew
Point
Rel
Hum
%
Delta-T
°C
Wind Press
QNH
hPa
Press
MSL
hPa
Rain
since 9 am
mm
Dir
 
Spd
km/h
Gust
km/h
Spd
kts
Gust
kts
01/11:30pm 21.5 18.4 7.3 40 7.4 S 13 19 7 10 1011.7 1010.6 0.0
01/11:00pm 21.6 18.6 7.8 41 7.3 S 13 17 7 9 1011.9 1010.8 0.0
01/10:30pm 22.0 19.8 9.5 45 6.8 SSW 11 13 6 7 1012.0 1010.9 0.0
01/10:00pm 22.8 20.6 9.2 42 7.4 SSW 11 13 6 7 1011.9 1010.8 0.0
01/09:30pm 24.9 22.5 10.0 39 8.3 S 13 15 7 8 1011.4 1010.2 0.0
01/09:00pm 26.7 23.6 10.4 36 9.3 S 17 24 9 13 1010.9 1009.7 0.0
01/08:30pm 28.0 23.8 12.4 38 9.2 S 26 35 14 19 1010.0 1008.8 0.0
01/08:00pm 28.9 25.0 14.3 40 8.9 S 28 39 15 21 1009.1 1007.9 0.0
01/07:30pm 30.3 26.9 14.8 39 9.6 SSW 26 41 14 22 1008.2 1007.0 0.0
01/07:00pm 31.6 27.0 14.7 36 10.5 SSW 32 44 17 24 1007.4 1006.2 0.0
01/06:30pm 33.7 29.9 14.7 32 11.9 SW 28 39 15 21 1006.9 1005.7 0.0
01/06:00pm 34.6 29.2 14.0 29 12.8 SW 35 48 19 26 1006.2 1005.0 0.0
01/05:45pm 35.1 30.6 13.8 27 13.2 WSW 30 50 16 27 1005.8 1004.6 0.0
01/05:30pm 35.2 32.5 15.5 30 12.5 W 24 33 13 18 1005.7 1004.5 0.0
01/05:00pm 34.7 30.7 14.0 28 12.9 WNW 28 35 15 19 1005.5 1004.3 0.0
01/04:30pm 31.6 25.9 16.3 39 9.7 NW 41 59 22 32 1006.1 1004.9 0.0
01/04:26pm 32.3 27.1 16.6 39 10.0 WNW 39 59 21 32 1006.0 1004.8 0.0
01/04:12pm 34.2 29.2 16.1 34 11.5 W 37 59 20 32 1005.8 1004.6 0.0
01/04:00pm 35.0 31.4 15.3 30 12.5 W 28 37 15 20 1005.4 1004.2 0.0
01/03:30pm 37.7 35.6 17.1 29 13.5 WNW 24 35 13 19 1005.6 1004.4 0.0
01/03:00pm 35.3 32.4 16.1 32 12.3 NW 26 39 14 21 1006.3 1005.1 0.0
01/02:30pm 35.7 34.5 17.4 33 11.9 WNW 20 28 11 15 1006.9 1005.7 0.0
01/02:00pm 34.4 32.5 16.7 34 11.4 WNW 22 37 12 20 1007.2 1006.0 0.0
01/01:30pm 35.2 34.1 18.7 37 10.9 NW 22 33 12 18 1007.6 1006.4 0.0
01/01:00pm 34.4 33.4 19.6 41 9.9 NW 24 35 13 19 1008.0 1006.8 0.0
01/12:30pm 33.3 32.2 19.4 44 9.2 NNW 24 37 13 20 1008.6 1007.4 0.0
01/12:00pm 33.6 32.7 20.7 46 8.7 NW 26 37 14 20 1009.0 1007.8 0.0
01/11:30am 32.5 31.1 20.4 49 8.1 NW 28 35 15 19 1009.3 1008.1 0.0
01/11:00am 31.5 29.6 20.1 50 7.6 NNW 30 41 16 22 1009.2 1008.0 0.0
01/10:30am 31.2 29.3 20.2 52 7.4 NNW 30 44 16 24 1009.1 1007.5 0.0
01/10:00am 30.6 28.7 20.2 53 7.0 N 30 41 16 22 1008.9 1007.3 0.0
01/09:30am 29.2 30.1 20.1 58 6.0 N 15 30 8 16 1009.0 1007.4 0.0
01/09:00am 26.6 27.6 17.7 58 5.7 NE 9 13 5 7 1009.1 1007.5 0.0
01/08:30am 25.7 26.4 17.1 59 5.4 E 9 11 5 6 1008.8 1007.2 0.0
01/08:00am 23.5 23.8 16.1 63 4.6 SE 9 11 5 6 1008.6 1007.0 0.0
01/07:30am 21.3 21.3 16.3 73 3.1 ESE 11 13 6 7 1008.1 1006.6 0.0
01/07:00am 19.6 19.1 15.0 75 2.7 ESE 11 13 6 7 1007.6 1006.1 0.0
01/06:30am 19.6 19.1 14.8 74 2.8 E 11 13 6 7 1007.4 1005.8 0.0
01/06:00am 20.0 19.2 15.0 73 3.0 E 13 15 7 8 1007.1 1005.5 0.0
01/05:30am 19.7 19.1 14.5 72 3.1 E 11 13 6 7 1006.9 1005.3 0.0
01/05:00am 20.3 19.6 14.4 69 3.5 E 11 13 6 7 1006.7 1005.1 0.0
01/04:30am 20.3 19.9 14.0 67 3.7 ENE 9 13 5 7 1006.5 1004.9 0.0
01/04:10am 20.9 20.5 14.1 65 4.0 ENE 9 13 5 7 1006.6 1005.0 0.0
01/04:00am 21.1 20.7 14.0 64 4.2 NE 9 11 5 6 1006.7 1005.1 0.0
01/03:56am 21.1 20.7 14.0 64 4.2 NE 9 11 5 6 1006.7 1005.1 0.0
01/03:30am 21.4 20.9 13.8 62 4.5 ENE 9 11 5 6 1006.9 1005.3 0.0
01/03:00am 22.0 21.2 14.1 61 4.7 ENE 11 13 6 7 1007.1 1005.5 0.0
01/02:30am 22.2 21.5 14.3 61 4.7 ENE 11 15 6 8 1007.3 1005.7 0.0
01/02:00am 22.6 22.1 15.0 62 4.6 ENE 11 15 6 8 1007.6 1006.1 0.0
01/01:30am 23.3 22.5 15.1 60 5.0 ENE 13 17 7 9 1007.9 1006.4 0.0
01/01:00am 24.5 23.3 16.0 59 5.2 ENE 17 20 9 11 1007.9 1006.4 0.0
01/12:30am 24.7 24.0 16.4 60 5.1 ENE 15 20 8 11 1008.0 1006.5 0.0
01/12:00am 24.8 24.5 16.5 60 5.2 ENE 13 20 7 11 1008.1 1006.6 0.0
 
Date/Time
EDT
Temp
°C
App
Temp
°C
Dew
Point
Rel
Hum
%
Delta-T
°C
Wind Press
QNH
hPa
Press
MSL
hPa
Rain
since 9 am
mm
Dir
 
Spd
km/h
Gust
km/h
Spd
kts
Gust
kts
28/11:32pm 24.6 24.2 16.1 59 5.2 ENE 13 15 7 8 1008.2 1006.7 0.0
28/11:30pm 24.6 24.2 16.1 59 5.2 ENE 13 15 7 8 1008.2 1006.7 0.0
28/11:16pm 24.2 23.7 15.9 59 5.1 ENE 13 15 7 8 1008.2 1006.7 0.0
28/11:00pm 23.9 23.6 15.4 59 5.2 ENE 11 13 6 7 1008.3 1006.8 0.0
28/10:30pm 24.0 23.7 15.5 59 5.2 E 11 13 6 7 1008.2 1006.7 0.0

Other Formats:

Comma delimited format used in spreadsheet applications
http://www.bom.gov.au/fwo/IDN60801/IDN60801.95719.axf

JavaScript Object Notation format (JSON) in row-major order
http://www.bom.gov.au/fwo/IDN60801/IDN60801.95719.json